createdAt,value
2023-03-31T00:00:54.742Z,9.96
2023-03-31T00:03:25.358Z,9.91
2023-03-31T00:05:59.433Z,9.93
2023-03-31T00:08:30.740Z,9.96
2023-03-31T00:11:00.985Z,9.92
2023-03-31T00:13:28.715Z,9.79
2023-03-31T00:16:04.591Z,9.92
2023-03-31T00:18:36.215Z,10.02
2023-03-31T00:21:14.952Z,10.18
2023-03-31T00:23:42.226Z,10.04
2023-03-31T00:26:09.393Z,10.04
2023-03-31T00:28:39.109Z,10.16
2023-03-31T00:31:06.104Z,10.17
2023-03-31T00:33:33.164Z,10.17
2023-03-31T00:36:06.646Z,10.05
2023-03-31T00:38:33.899Z,10.11
2023-03-31T00:41:01.448Z,10.05
2023-03-31T00:43:31.688Z,10.01
2023-03-31T00:46:14.113Z,10.06
2023-03-31T00:48:51.715Z,10.00
2023-03-31T00:51:20.256Z,10.00
2023-03-31T00:53:55.669Z,10.04
2023-03-31T00:56:22.595Z,10.05
2023-03-31T00:58:50.241Z,10.10
2023-03-31T01:01:20.891Z,10.09
2023-03-31T01:03:48.370Z,10.12
2023-03-31T01:06:20.173Z,10.19
2023-03-31T01:08:49.232Z,10.14
2023-03-31T01:11:20.164Z,10.10
2023-03-31T01:13:51.182Z,10.14
2023-03-31T01:16:19.099Z,10.14
2023-03-31T01:18:49.938Z,10.04
2023-03-31T01:21:40.333Z,10.00
2023-03-31T01:24:47.529Z,10.07
2023-03-31T01:27:37.524Z,10.15
2023-03-31T01:30:07.560Z,10.20
2023-03-31T01:33:21.955Z,10.17
2023-03-31T01:36:13.713Z,10.15
2023-03-31T01:39:19.151Z,10.11
2023-03-31T01:42:21.952Z,9.76
2023-03-31T01:44:51.451Z,10.10
2023-03-31T01:47:31.833Z,9.95
2023-03-31T01:50:07.295Z,10.20
2023-03-31T01:53:23.737Z,10.06
2023-03-31T01:56:04.804Z,10.00
2023-03-31T01:58:42.539Z,9.95
2023-03-31T02:01:37.486Z,10.15
2023-03-31T02:04:22.772Z,10.20
2023-03-31T02:07:01.740Z,10.18
2023-03-31T02:09:35.599Z,10.18
2023-03-31T02:12:06.557Z,10.24
2023-03-31T02:14:35.722Z,10.29
2023-03-31T02:17:04.076Z,10.30
2023-03-31T02:19:37.012Z,10.27
2023-03-31T02:22:07.515Z,10.24
2023-03-31T02:24:37.324Z,10.20
2023-03-31T02:27:10.495Z,10.20
2023-03-31T02:29:37.510Z,10.07
2023-03-31T02:32:14.488Z,10.11
2023-03-31T02:34:41.753Z,10.04
2023-03-31T02:37:09.129Z,9.90
2023-03-31T02:39:39.767Z,9.72
2023-03-31T02:42:09.943Z,9.78
2023-03-31T02:44:38.562Z,9.64
2023-03-31T02:47:09.737Z,9.71
2023-03-31T02:49:40.601Z,9.72
2023-03-31T02:52:18.360Z,9.79
2023-03-31T02:54:58.519Z,9.85
2023-03-31T02:58:04.344Z,9.99
2023-03-31T03:01:28.294Z,9.91
2023-03-31T03:04:34.438Z,10.02
2023-03-31T03:07:39.999Z,9.91
2023-03-31T03:10:36.389Z,9.97
2023-03-31T03:13:24.392Z,9.94
2023-03-31T03:16:04.530Z,9.90
2023-03-31T03:18:32.084Z,9.89
2023-03-31T03:20:59.007Z,9.89
2023-03-31T03:23:26.125Z,9.86
2023-03-31T03:25:52.985Z,9.76
2023-03-31T03:28:20.230Z,9.86
2023-03-31T03:30:47.500Z,9.92
2023-03-31T03:33:17.477Z,9.91
2023-03-31T03:35:44.636Z,9.95
2023-03-31T03:38:11.676Z,9.62
2023-03-31T03:40:38.710Z,9.99
2023-03-31T03:43:05.803Z,9.97
2023-03-31T03:45:32.830Z,9.84
2023-03-31T03:47:59.796Z,9.89
2023-03-31T03:50:26.945Z,9.81
2023-03-31T03:52:54.506Z,9.71
2023-03-31T03:55:21.376Z,9.74
2023-03-31T03:57:50.351Z,9.62
2023-03-31T04:00:17.298Z,9.76
2023-03-31T04:02:44.165Z,9.78
2023-03-31T04:05:11.229Z,9.68
2023-03-31T04:07:38.195Z,9.65
2023-03-31T04:10:06.913Z,9.67
2023-03-31T04:12:37.176Z,9.68
2023-03-31T04:15:04.659Z,9.67
2023-03-31T04:17:35.259Z,9.64
2023-03-31T04:20:05.866Z,9.85
2023-03-31T04:22:35.680Z,9.79
2023-03-31T04:25:04.726Z,9.62
2023-03-31T04:27:34.053Z,9.56
2023-03-31T04:30:01.015Z,9.65
2023-03-31T04:32:28.648Z,9.61
2023-03-31T04:35:03.561Z,9.65
2023-03-31T04:37:35.039Z,9.55
2023-03-31T04:40:08.065Z,9.61
2023-03-31T04:42:35.279Z,9.47
2023-03-31T04:45:03.158Z,9.37
2023-03-31T04:47:30.093Z,9.37
2023-03-31T04:49:56.992Z,9.40
2023-03-31T04:52:24.084Z,9.49
2023-03-31T04:54:51.292Z,9.38
2023-03-31T04:57:18.371Z,9.20
2023-03-31T04:59:45.338Z,9.31
2023-03-31T05:02:12.346Z,9.37
2023-03-31T05:04:39.186Z,9.42
2023-03-31T05:07:06.185Z,9.52
2023-03-31T05:09:34.644Z,9.55
2023-03-31T05:12:01.951Z,9.44
2023-03-31T05:14:28.846Z,9.31
2023-03-31T05:16:58.259Z,9.33
2023-03-31T05:19:25.726Z,9.42
2023-03-31T05:21:52.811Z,9.43
2023-03-31T05:24:19.724Z,9.46
2023-03-31T05:26:51.731Z,9.49
2023-03-31T05:29:19.745Z,9.52
2023-03-31T05:31:47.550Z,9.55
2023-03-31T05:34:15.193Z,9.49
2023-03-31T05:36:44.101Z,9.55
2023-03-31T05:39:11.024Z,9.50
2023-03-31T05:41:37.887Z,9.57
2023-03-31T05:44:04.828Z,9.65
2023-03-31T05:46:32.172Z,9.69
2023-03-31T05:49:00.018Z,9.70
2023-03-31T05:51:27.012Z,9.78
2023-03-31T05:53:54.138Z,9.75
2023-03-31T05:56:22.430Z,9.60
2023-03-31T05:58:49.258Z,9.59
2023-03-31T06:01:23.151Z,9.73
2023-03-31T06:03:50.531Z,9.67
2023-03-31T06:06:17.447Z,9.89
2023-03-31T06:08:46.194Z,9.78
2023-03-31T06:11:19.689Z,9.93
2023-03-31T06:13:47.544Z,9.93
2023-03-31T06:16:17.255Z,9.93
2023-03-31T06:18:44.788Z,9.85
2023-03-31T06:21:14.572Z,9.91
2023-03-31T06:23:41.942Z,9.91
2023-03-31T06:26:09.651Z,9.91
2023-03-31T06:28:36.700Z,10.09
2023-03-31T06:31:09.849Z,9.98
2023-03-31T06:33:36.917Z,9.86
2023-03-31T06:36:05.951Z,9.98
2023-03-31T06:38:35.620Z,9.99
2023-03-31T06:41:03.045Z,9.96
2023-03-31T06:43:30.219Z,10.03
2023-03-31T06:45:57.332Z,10.19
2023-03-31T06:48:25.549Z,10.40
2023-03-31T06:50:54.447Z,10.61
2023-03-31T06:53:22.424Z,10.77
2023-03-31T06:55:49.427Z,10.86
2023-03-31T06:58:16.523Z,10.84
2023-03-31T07:00:45.499Z,10.65
2023-03-31T07:03:13.664Z,10.63
2023-03-31T07:05:41.376Z,10.76
2023-03-31T07:08:08.223Z,10.72
2023-03-31T07:10:35.042Z,10.69
2023-03-31T07:13:04.415Z,10.87
2023-03-31T07:15:32.312Z,10.94
2023-03-31T07:18:02.291Z,11.03
2023-03-31T07:20:30.786Z,11.06
2023-03-31T07:22:58.029Z,11.13
2023-03-31T07:25:25.182Z,11.32
2023-03-31T07:27:52.200Z,11.35
2023-03-31T07:30:20.332Z,11.52
2023-03-31T07:32:49.061Z,11.72
2023-03-31T07:35:17.172Z,11.99
2023-03-31T07:37:46.962Z,12.22
2023-03-31T07:40:17.092Z,11.95
2023-03-31T07:42:46.477Z,11.71
2023-03-31T07:45:16.844Z,11.85
2023-03-31T07:47:45.017Z,11.80
2023-03-31T07:50:12.370Z,11.42
2023-03-31T07:52:40.559Z,11.29
2023-03-31T07:55:09.509Z,11.05
2023-03-31T07:57:37.126Z,10.97
2023-03-31T08:00:10.990Z,10.77
2023-03-31T08:02:38.813Z,10.51
2023-03-31T08:05:07.419Z,10.62
2023-03-31T08:07:39.418Z,10.66
2023-03-31T08:10:09.056Z,10.74
2023-03-31T08:12:36.132Z,10.75
2023-03-31T08:15:03.627Z,10.78
2023-03-31T08:17:30.830Z,10.57
2023-03-31T08:19:59.741Z,10.65
2023-03-31T08:22:28.605Z,10.69
2023-03-31T08:24:55.881Z,10.68
2023-03-31T08:27:22.638Z,10.73
2023-03-31T08:29:50.227Z,10.63
2023-03-31T08:32:17.216Z,10.58
2023-03-31T08:34:44.064Z,10.46
2023-03-31T08:37:12.845Z,10.52
2023-03-31T08:39:39.990Z,10.56
2023-03-31T08:42:20.370Z,10.65
2023-03-31T08:45:26.724Z,10.52
2023-03-31T08:48:04.062Z,10.72
2023-03-31T08:50:36.815Z,10.86
2023-03-31T08:53:14.045Z,10.80
2023-03-31T08:55:54.728Z,10.79
2023-03-31T08:58:42.381Z,10.70
2023-03-31T09:01:32.408Z,10.56
2023-03-31T09:04:24.214Z,10.54
2023-03-31T09:07:11.062Z,10.45
2023-03-31T09:10:19.980Z,10.73
2023-03-31T09:13:23.066Z,11.28
2023-03-31T09:16:01.574Z,11.16
2023-03-31T09:18:33.049Z,10.98
2023-03-31T09:21:10.854Z,10.79
2023-03-31T09:23:51.580Z,10.66
2023-03-31T09:26:27.616Z,10.80
2023-03-31T09:28:58.057Z,10.88
2023-03-31T09:31:25.134Z,11.24
2023-03-31T09:33:59.695Z,11.62
2023-03-31T09:36:26.475Z,11.78
2023-03-31T09:38:53.490Z,11.93
2023-03-31T09:41:20.943Z,12.06
2023-03-31T09:43:52.488Z,11.80
2023-03-31T09:46:29.222Z,11.72
2023-03-31T09:49:02.805Z,11.64
2023-03-31T09:51:33.635Z,11.52
2023-03-31T09:54:14.864Z,11.75
2023-03-31T09:56:49.237Z,12.37
2023-03-31T09:59:21.114Z,12.41
2023-03-31T10:01:52.066Z,12.36
2023-03-31T10:04:25.721Z,12.05
2023-03-31T10:06:53.954Z,11.70
2023-03-31T10:09:25.268Z,11.66
2023-03-31T10:11:58.427Z,11.69
2023-03-31T10:14:32.920Z,12.20
2023-03-31T10:17:06.063Z,12.50
2023-03-31T10:19:36.732Z,12.23
2023-03-31T10:22:16.296Z,12.11
2023-03-31T10:24:45.720Z,12.11
2023-03-31T10:27:26.727Z,12.26
2023-03-31T10:30:02.426Z,12.08
2023-03-31T10:32:32.384Z,12.36
2023-03-31T10:35:09.283Z,12.75
2023-03-31T10:37:37.983Z,12.82
2023-03-31T10:40:21.334Z,12.92
2023-03-31T10:42:58.883Z,12.55
2023-03-31T10:45:37.016Z,12.42
2023-03-31T10:48:07.266Z,12.27
2023-03-31T10:50:36.627Z,12.43
2023-03-31T10:53:22.329Z,12.17
2023-03-31T10:56:08.190Z,12.73
2023-03-31T10:59:05.711Z,13.09
2023-03-31T11:02:31.373Z,13.63
2023-03-31T11:05:16.086Z,13.83
2023-03-31T11:08:32.284Z,14.02
2023-03-31T11:11:32.303Z,13.11
2023-03-31T11:14:24.604Z,13.17
2023-03-31T11:17:11.799Z,12.90
2023-03-31T11:20:07.118Z,12.35
2023-03-31T11:22:44.774Z,11.72
2023-03-31T11:25:32.075Z,11.73
2023-03-31T11:28:04.643Z,12.00
2023-03-31T11:30:39.957Z,11.96
2023-03-31T11:33:44.400Z,11.98
2023-03-31T11:36:46.732Z,12.18
2023-03-31T11:39:51.353Z,12.09
2023-03-31T11:42:27.723Z,11.73
2023-03-31T11:45:04.658Z,11.66
2023-03-31T11:47:38.047Z,11.93
2023-03-31T11:50:11.700Z,11.50
2023-03-31T11:52:43.679Z,11.58
2023-03-31T11:55:19.560Z,11.48
2023-03-31T11:58:13.221Z,11.46
2023-03-31T12:01:22.252Z,11.19
2023-03-31T12:03:58.135Z,11.08
2023-03-31T12:06:30.883Z,11.32
2023-03-31T12:09:21.812Z,11.00
2023-03-31T12:11:59.999Z,11.10
2023-03-31T12:14:42.378Z,11.06
2023-03-31T12:17:23.278Z,10.92
2023-03-31T12:19:53.841Z,11.06
2023-03-31T12:22:39.316Z,10.89
2023-03-31T12:25:06.750Z,10.74
2023-03-31T12:27:41.966Z,10.62
2023-03-31T12:30:37.917Z,10.73
2023-03-31T12:33:27.361Z,10.94
2023-03-31T12:36:13.597Z,11.15
2023-03-31T12:39:09.193Z,11.13
2023-03-31T12:42:03.222Z,11.11
2023-03-31T12:44:40.441Z,11.11
2023-03-31T12:47:13.377Z,11.40
2023-03-31T12:49:58.798Z,11.54
2023-03-31T12:52:46.909Z,12.06
2023-03-31T12:55:37.460Z,12.63
2023-03-31T12:58:22.970Z,12.70
2023-03-31T13:01:11.294Z,12.43
2023-03-31T13:04:04.947Z,12.29
2023-03-31T13:06:31.896Z,12.15
2023-03-31T13:09:02.871Z,11.89
2023-03-31T13:11:38.499Z,11.58
2023-03-31T13:14:14.111Z,11.63
2023-03-31T13:16:41.257Z,11.91
2023-03-31T13:19:10.658Z,11.97
2023-03-31T13:21:55.710Z,11.94
2023-03-31T13:24:24.531Z,12.39
2023-03-31T13:26:54.885Z,12.90
2023-03-31T13:29:42.204Z,13.03
2023-03-31T13:32:26.308Z,12.95
2023-03-31T13:34:59.489Z,12.98
2023-03-31T13:38:03.448Z,12.89
2023-03-31T13:40:45.310Z,12.68
2023-03-31T13:43:23.934Z,12.83
2023-03-31T13:46:28.605Z,12.90
2023-03-31T13:49:04.580Z,13.33
2023-03-31T13:52:05.726Z,12.93
2023-03-31T13:55:06.899Z,12.42
2023-03-31T13:57:58.434Z,12.08
2023-03-31T14:00:29.016Z,11.81
2023-03-31T14:03:20.068Z,11.79
2023-03-31T14:06:21.160Z,11.82
2023-03-31T14:08:51.602Z,11.91
2023-03-31T14:11:21.797Z,12.30
2023-03-31T14:14:02.051Z,12.31
2023-03-31T14:16:31.880Z,12.29
2023-03-31T14:19:09.069Z,12.11
2023-03-31T14:21:58.979Z,12.27
2023-03-31T14:24:49.036Z,12.40
2023-03-31T14:27:40.937Z,12.65
2023-03-31T14:30:30.132Z,12.88
2023-03-31T14:33:04.200Z,13.14
2023-03-31T14:35:39.004Z,13.52
2023-03-31T14:38:19.404Z,14.14
2023-03-31T14:40:49.922Z,14.64
2023-03-31T14:43:29.901Z,14.52
2023-03-31T14:46:01.995Z,14.27
2023-03-31T14:48:32.158Z,14.06
2023-03-31T14:51:02.359Z,13.91
2023-03-31T14:53:29.579Z,13.24
2023-03-31T14:56:07.214Z,12.30
2023-03-31T14:58:38.674Z,11.67
2023-03-31T15:01:07.611Z,11.80
2023-03-31T15:03:42.049Z,11.93
2023-03-31T15:06:09.868Z,11.89
2023-03-31T15:08:38.350Z,11.93
2023-03-31T15:13:46.927Z,11.50
2023-03-31T15:16:46.330Z,11.71
2023-03-31T15:19:25.148Z,11.68
2023-03-31T15:22:19.696Z,11.71
2023-03-31T15:24:49.270Z,11.73
2023-03-31T15:27:43.520Z,11.85
2023-03-31T15:30:21.150Z,11.65
2023-03-31T15:32:48.512Z,11.92
2023-03-31T15:35:27.915Z,11.88
2023-03-31T15:37:57.271Z,11.98
2023-03-31T15:40:32.939Z,12.11
2023-03-31T15:43:24.563Z,12.25
2023-03-31T15:46:00.804Z,12.55
2023-03-31T15:48:37.460Z,12.61
2023-03-31T15:51:17.585Z,12.56
2023-03-31T15:53:54.024Z,12.59
2023-03-31T15:56:44.007Z,12.63
2023-03-31T15:59:54.702Z,12.73
2023-03-31T16:02:26.716Z,12.46
2023-03-31T16:04:59.683Z,12.06
2023-03-31T16:07:30.449Z,11.97
2023-03-31T16:10:20.813Z,11.99
2023-03-31T16:13:00.954Z,11.87
2023-03-31T16:15:42.190Z,11.91
2023-03-31T16:18:26.738Z,11.69
2023-03-31T16:20:56.198Z,11.62
2023-03-31T16:23:26.814Z,11.56
2023-03-31T16:25:54.478Z,11.44
2023-03-31T16:28:25.024Z,11.25
2023-03-31T16:30:52.471Z,11.27
2023-03-31T16:33:24.696Z,11.32
2023-03-31T16:35:56.130Z,11.26
2023-03-31T16:38:25.309Z,11.32
2023-03-31T16:40:57.791Z,11.50
2023-03-31T16:43:28.934Z,11.46
2023-03-31T16:45:58.471Z,11.39
2023-03-31T16:48:27.556Z,11.42
2023-03-31T16:50:59.269Z,11.30
2023-03-31T16:53:34.048Z,11.44
2023-03-31T16:56:01.381Z,11.65
2023-03-31T16:58:29.413Z,11.59
2023-03-31T17:00:57.774Z,11.56
2023-03-31T17:03:25.350Z,11.72
2023-03-31T17:05:59.259Z,11.84
2023-03-31T17:08:32.113Z,11.84
2023-03-31T17:11:05.559Z,11.91
2023-03-31T17:13:32.912Z,11.79
2023-03-31T17:18:47.577Z,11.69
2023-03-31T17:21:18.516Z,11.44
2023-03-31T17:23:46.686Z,11.50
2023-03-31T17:26:16.751Z,11.40
2023-03-31T17:28:44.005Z,11.51
2023-03-31T17:31:19.954Z,11.56
2023-03-31T17:33:47.709Z,11.55
2023-03-31T17:36:15.950Z,11.49
2023-03-31T17:38:42.954Z,11.60
2023-03-31T17:41:13.114Z,11.54
2023-03-31T17:43:43.979Z,11.33
2023-03-31T17:46:12.945Z,11.07
2023-03-31T17:48:40.477Z,10.88
2023-03-31T17:51:09.403Z,11.00
2023-03-31T17:53:36.976Z,11.00
2023-03-31T17:56:04.956Z,10.95
2023-03-31T17:58:33.317Z,11.02
2023-03-31T18:01:00.664Z,10.95
2023-03-31T18:03:30.384Z,10.97
2023-03-31T18:05:57.206Z,10.95
2023-03-31T18:08:24.095Z,10.90
2023-03-31T18:10:50.985Z,10.87
2023-03-31T18:13:17.814Z,10.71
2023-03-31T18:15:52.705Z,10.86
2023-03-31T18:18:21.622Z,10.86
2023-03-31T18:20:48.410Z,10.80
2023-03-31T18:23:15.201Z,10.78
2023-03-31T18:25:46.467Z,10.76
2023-03-31T18:28:15.650Z,10.73
2023-03-31T18:30:44.188Z,10.67
2023-03-31T18:33:12.993Z,10.61
2023-03-31T18:35:40.441Z,10.57
2023-03-31T18:38:07.958Z,10.63
2023-03-31T18:40:34.999Z,10.85
2023-03-31T18:43:02.837Z,10.79
2023-03-31T18:45:30.999Z,10.39
2023-03-31T18:47:58.742Z,10.77
2023-03-31T18:50:26.173Z,10.45
2023-03-31T18:52:54.860Z,10.49
2023-03-31T18:55:22.702Z,10.55
2023-03-31T18:57:49.937Z,10.59
2023-03-31T19:00:17.557Z,10.37
2023-03-31T19:02:44.842Z,10.58
2023-03-31T19:05:12.676Z,10.82
2023-03-31T19:07:40.851Z,10.61
2023-03-31T19:10:08.416Z,10.61
2023-03-31T19:12:35.641Z,10.26
2023-03-31T19:15:02.587Z,10.17
2023-03-31T19:17:30.169Z,10.28
2023-03-31T19:19:57.412Z,10.06
2023-03-31T19:22:25.846Z,9.95
2023-03-31T19:24:53.489Z,10.04
2023-03-31T19:27:20.385Z,9.77
2023-03-31T19:29:47.245Z,9.69
2023-03-31T19:32:14.539Z,9.42
2023-03-31T19:34:42.680Z,9.66
2023-03-31T19:37:10.340Z,9.86
2023-03-31T19:39:37.721Z,9.95
2023-03-31T19:42:04.669Z,9.80
2023-03-31T19:44:31.651Z,9.57
2023-03-31T19:46:58.911Z,9.51
2023-03-31T19:49:26.019Z,9.54
2023-03-31T19:51:53.553Z,9.32
2023-03-31T19:54:20.687Z,9.44
2023-03-31T19:56:48.494Z,9.52
2023-03-31T19:59:15.418Z,9.52
2023-03-31T20:01:42.624Z,9.45
2023-03-31T20:04:09.718Z,9.38
2023-03-31T20:06:37.367Z,9.51
2023-03-31T20:09:06.595Z,9.67
2023-03-31T20:11:34.050Z,9.41
2023-03-31T20:14:02.033Z,9.45
2023-03-31T20:16:30.953Z,9.56
2023-03-31T20:19:04.646Z,9.46
2023-03-31T20:21:33.823Z,9.49
2023-03-31T20:24:00.853Z,9.32
2023-03-31T20:26:30.267Z,9.29
2023-03-31T20:28:59.155Z,9.24
2023-03-31T20:31:29.069Z,9.21
2023-03-31T20:33:56.626Z,9.21
2023-03-31T20:36:27.533Z,9.31
2023-03-31T20:38:54.398Z,9.23
2023-03-31T20:41:24.001Z,9.30
2023-03-31T20:43:51.205Z,9.26
2023-03-31T20:46:19.185Z,9.29
2023-03-31T20:48:52.282Z,9.41
2023-03-31T20:51:22.366Z,9.30
2023-03-31T20:53:53.309Z,9.39
2023-03-31T20:56:32.102Z,9.61
2023-03-31T20:59:00.183Z,9.50
2023-03-31T21:01:30.340Z,9.46
2023-03-31T21:04:01.487Z,9.41
2023-03-31T21:06:31.361Z,9.38
2023-03-31T21:08:58.752Z,9.36
2023-03-31T21:11:29.622Z,9.46
2023-03-31T21:13:56.596Z,9.59
2023-03-31T21:16:24.119Z,9.37
2023-03-31T21:19:00.048Z,9.35
2023-03-31T21:21:28.013Z,9.58
2023-03-31T21:23:55.829Z,9.55
2023-03-31T21:26:23.407Z,9.54
2023-03-31T21:28:54.500Z,9.62
2023-03-31T21:31:26.250Z,9.56
2023-03-31T21:33:53.890Z,9.49
2023-03-31T21:36:23.006Z,9.39
2023-03-31T21:38:54.303Z,9.49
2023-03-31T21:41:24.489Z,9.49
2023-03-31T21:43:52.582Z,9.53
2023-03-31T21:46:24.967Z,9.67
2023-03-31T21:48:51.948Z,9.62
2023-03-31T21:51:22.260Z,9.45
2023-03-31T21:53:53.392Z,9.36
2023-03-31T21:56:20.497Z,9.21
2023-03-31T21:58:47.425Z,9.24
2023-03-31T22:01:15.039Z,9.32
2023-03-31T22:03:42.625Z,9.30
2023-03-31T22:06:10.737Z,9.27
2023-03-31T22:08:39.242Z,9.43
2023-03-31T22:11:08.394Z,9.38
2023-03-31T22:13:35.846Z,9.41
2023-03-31T22:16:04.359Z,9.34
2023-03-31T22:18:31.463Z,9.26
2023-03-31T22:20:58.564Z,9.30
2023-03-31T22:23:27.833Z,9.05
2023-03-31T22:25:55.004Z,8.92
2023-03-31T22:28:21.879Z,8.97
2023-03-31T22:30:48.923Z,8.90
2023-03-31T22:33:15.955Z,8.91
2023-03-31T22:35:42.847Z,8.92
2023-03-31T22:38:12.990Z,8.89
2023-03-31T22:40:39.926Z,9.02
2023-03-31T22:43:06.795Z,9.11
2023-03-31T22:45:36.687Z,9.11
2023-03-31T22:48:04.480Z,8.92
2023-03-31T22:50:31.919Z,9.13
2023-03-31T22:52:58.832Z,9.04
2023-03-31T22:55:25.598Z,9.11
2023-03-31T22:57:52.511Z,9.20
2023-03-31T23:00:19.717Z,9.15
2023-03-31T23:02:46.585Z,9.34
2023-03-31T23:05:16.655Z,9.20
2023-03-31T23:07:43.943Z,9.45
2023-03-31T23:10:11.540Z,9.25
2023-03-31T23:12:38.615Z,9.07
2023-03-31T23:15:05.866Z,9.04
2023-03-31T23:17:33.019Z,9.00
2023-03-31T23:19:59.873Z,9.27
2023-03-31T23:22:26.856Z,8.95
2023-03-31T23:24:54.048Z,9.41
2023-03-31T23:27:21.298Z,9.06
2023-03-31T23:29:48.408Z,9.33
2023-03-31T23:32:15.751Z,9.10
2023-03-31T23:34:42.917Z,9.29
2023-03-31T23:37:11.346Z,9.17
2023-03-31T23:39:39.139Z,9.19
2023-03-31T23:42:10.074Z,9.11
2023-03-31T23:44:40.016Z,9.08
2023-03-31T23:47:06.934Z,9.16
2023-03-31T23:49:33.843Z,9.02
2023-03-31T23:52:00.983Z,9.03
2023-03-31T23:54:28.127Z,9.18
2023-03-31T23:56:54.967Z,9.02
2023-03-31T23:59:22.025Z,8.94
